sensor_id;sensor_type;location;lat;lon;timestamp;P1;durP1;ratioP1;P2;durP2;ratioP2
18875;SDS011;9570;50.854;13.778;2023-11-22T09:35:04;26.80;;;16.02;;
18875;SDS011;9570;50.854;13.778;2023-11-22T09:37:30;27.23;;;16.80;;
18875;SDS011;9570;50.854;13.778;2023-11-22T09:39:57;25.42;;;15.48;;
18875;SDS011;9570;50.854;13.778;2023-11-22T09:42:23;23.67;;;14.17;;
18875;SDS011;9570;50.854;13.778;2023-11-22T09:44:49;25.83;;;14.40;;
18875;SDS011;9570;50.854;13.778;2023-11-22T09:47:14;20.67;;;12.67;;
18875;SDS011;9570;50.854;13.778;2023-11-22T09:49:43;24.93;;;14.87;;
18875;SDS011;9570;50.854;13.778;2023-11-22T09:52:14;22.93;;;13.93;;
18875;SDS011;9570;50.854;13.778;2023-11-22T09:54:45;21.67;;;13.30;;
18875;SDS011;9570;50.854;13.778;2023-11-22T09:57:11;22.30;;;14.40;;
18875;SDS011;9570;50.854;13.778;2023-11-22T09:59:37;21.03;;;13.10;;
18875;SDS011;9570;50.854;13.778;2023-11-22T10:02:05;22.73;;;14.00;;
18875;SDS011;9570;50.854;13.778;2023-11-22T10:04:32;21.97;;;13.03;;
18875;SDS011;9570;50.854;13.778;2023-11-22T10:06:59;20.02;;;12.07;;
18875;SDS011;9570;50.854;13.778;2023-11-22T10:09:25;20.17;;;13.37;;
18875;SDS011;9570;50.854;13.778;2023-11-22T10:11:56;19.13;;;11.37;;
18875;SDS011;9570;50.854;13.778;2023-11-22T10:14:23;18.50;;;11.80;;
18875;SDS011;9570;50.854;13.778;2023-11-22T10:16:58;19.67;;;12.10;;
18875;SDS011;9570;50.854;13.778;2023-11-22T10:19:28;23.13;;;14.13;;
18875;SDS011;9570;50.854;13.778;2023-11-22T10:22:03;19.63;;;13.05;;
18875;SDS011;9570;50.854;13.778;2023-11-22T10:24:31;19.52;;;12.48;;
18875;SDS011;9570;50.854;13.778;2023-11-22T10:27:00;20.50;;;12.85;;
18875;SDS011;9570;50.854;13.778;2023-11-22T10:29:27;20.13;;;12.43;;
18875;SDS011;9570;50.854;13.778;2023-11-22T10:31:52;21.13;;;12.70;;
18875;SDS011;9570;50.854;13.778;2023-11-22T10:34:21;19.73;;;11.73;;
18875;SDS011;9570;50.854;13.778;2023-11-22T10:36:48;21.30;;;12.73;;
18875;SDS011;9570;50.854;13.778;2023-11-22T10:39:21;19.77;;;12.80;;
18875;SDS011;9570;50.854;13.778;2023-11-22T10:41:48;21.13;;;12.60;;
18875;SDS011;9570;50.854;13.778;2023-11-22T10:44:16;19.25;;;12.15;;
18875;SDS011;9570;50.854;13.778;2023-11-22T10:46:45;20.67;;;12.80;;
18875;SDS011;9570;50.854;13.778;2023-11-22T10:49:12;20.30;;;12.13;;
18875;SDS011;9570;50.854;13.778;2023-11-22T10:51:38;19.53;;;11.63;;
18875;SDS011;9570;50.854;13.778;2023-11-22T10:54:05;18.37;;;11.20;;
18875;SDS011;9570;50.854;13.778;2023-11-22T10:56:39;18.55;;;11.10;;
18875;SDS011;9570;50.854;13.778;2023-11-22T10:59:09;21.60;;;11.50;;
18875;SDS011;9570;50.854;13.778;2023-11-22T11:01:37;18.38;;;11.77;;
18875;SDS011;9570;50.854;13.778;2023-11-22T11:04:22;15.97;;;10.77;;
18875;SDS011;9570;50.854;13.778;2023-11-22T11:06:53;16.80;;;10.93;;
18875;SDS011;9570;50.854;13.778;2023-11-22T11:09:22;18.00;;;10.75;;
18875;SDS011;9570;50.854;13.778;2023-11-22T11:11:54;19.58;;;11.63;;
18875;SDS011;9570;50.854;13.778;2023-11-22T11:14:22;15.07;;;9.93;;
18875;SDS011;9570;50.854;13.778;2023-11-22T11:16:48;15.87;;;10.53;;
18875;SDS011;9570;50.854;13.778;2023-11-22T11:19:19;16.27;;;11.00;;
18875;SDS011;9570;50.854;13.778;2023-11-22T11:21:49;16.83;;;10.43;;
18875;SDS011;9570;50.854;13.778;2023-11-22T11:24:14;13.37;;;8.93;;
18875;SDS011;9570;50.854;13.778;2023-11-22T11:26:47;14.17;;;8.83;;
18875;SDS011;9570;50.854;13.778;2023-11-22T11:29:33;15.47;;;8.83;;
18875;SDS011;9570;50.854;13.778;2023-11-22T11:32:04;14.63;;;9.75;;
18875;SDS011;9570;50.854;13.778;2023-11-22T11:34:30;14.67;;;10.10;;
18875;SDS011;9570;50.854;13.778;2023-11-22T11:36:56;16.83;;;9.97;;
18875;SDS011;9570;50.854;13.778;2023-11-22T11:39:27;15.27;;;9.67;;
18875;SDS011;9570;50.854;13.778;2023-11-22T11:42:11;15.53;;;9.63;;
18875;SDS011;9570;50.854;13.778;2023-11-22T11:44:39;14.57;;;9.90;;
18875;SDS011;9570;50.854;13.778;2023-11-22T11:47:36;16.80;;;9.97;;
18875;SDS011;9570;50.854;13.778;2023-11-22T11:50:01;14.60;;;9.47;;
18875;SDS011;9570;50.854;13.778;2023-11-22T11:52:27;14.97;;;10.20;;
18875;SDS011;9570;50.854;13.778;2023-11-22T11:54:55;15.07;;;10.33;;
18875;SDS011;9570;50.854;13.778;2023-11-22T11:57:22;16.30;;;10.20;;
18875;SDS011;9570;50.854;13.778;2023-11-22T11:59:48;15.47;;;10.03;;
18875;SDS011;9570;50.854;13.778;2023-11-22T12:02:14;15.33;;;10.37;;
18875;SDS011;9570;50.854;13.778;2023-11-22T12:04:41;15.77;;;11.23;;
18875;SDS011;9570;50.854;13.778;2023-11-22T12:07:09;13.90;;;10.00;;
18875;SDS011;9570;50.854;13.778;2023-11-22T12:09:36;14.10;;;9.10;;
18875;SDS011;9570;50.854;13.778;2023-11-22T12:12:02;16.07;;;9.93;;
18875;SDS011;9570;50.854;13.778;2023-11-22T12:14:28;14.13;;;9.27;;
18875;SDS011;9570;50.854;13.778;2023-11-22T12:16:54;14.83;;;8.93;;
18875;SDS011;9570;50.854;13.778;2023-11-22T12:19:27;15.47;;;9.67;;
18875;SDS011;9570;50.854;13.778;2023-11-22T12:21:55;15.80;;;9.27;;
18875;SDS011;9570;50.854;13.778;2023-11-22T12:24:21;13.37;;;9.00;;
18875;SDS011;9570;50.854;13.778;2023-11-22T12:26:48;15.10;;;8.90;;
18875;SDS011;9570;50.854;13.778;2023-11-22T12:29:14;15.30;;;9.83;;
18875;SDS011;9570;50.854;13.778;2023-11-22T12:31:45;14.37;;;9.87;;
18875;SDS011;9570;50.854;13.778;2023-11-22T12:34:12;14.17;;;9.47;;
18875;SDS011;9570;50.854;13.778;2023-11-22T12:36:40;15.20;;;9.77;;
18875;SDS011;9570;50.854;13.778;2023-11-22T12:39:09;15.75;;;10.10;;
18875;SDS011;9570;50.854;13.778;2023-11-22T12:41:45;15.23;;;9.90;;
18875;SDS011;9570;50.854;13.778;2023-11-22T12:44:18;14.30;;;9.18;;
18875;SDS011;9570;50.854;13.778;2023-11-22T12:49:11;12.90;;;7.85;;
18875;SDS011;9570;50.854;13.778;2023-11-22T12:51:37;12.93;;;8.63;;
18875;SDS011;9570;50.854;13.778;2023-11-22T12:54:03;12.43;;;8.97;;
18875;SDS011;9570;50.854;13.778;2023-11-22T12:56:28;12.93;;;8.43;;
18875;SDS011;9570;50.854;13.778;2023-11-22T12:58:54;11.33;;;8.53;;
18875;SDS011;9570;50.854;13.778;2023-11-22T13:01:19;13.97;;;8.50;;
18875;SDS011;9570;50.854;13.778;2023-11-22T13:03:45;13.80;;;7.87;;
18875;SDS011;9570;50.854;13.778;2023-11-22T13:06:11;11.27;;;8.00;;
18875;SDS011;9570;50.854;13.778;2023-11-22T13:08:36;12.03;;;7.70;;
18875;SDS011;9570;50.854;13.778;2023-11-22T13:11:02;13.10;;;8.23;;
18875;SDS011;9570;50.854;13.778;2023-11-22T13:13:28;12.83;;;8.37;;
18875;SDS011;9570;50.854;13.778;2023-11-22T13:15:55;10.60;;;7.95;;
18875;SDS011;9570;50.854;13.778;2023-11-22T13:18:22;14.27;;;7.93;;
18875;SDS011;9570;50.854;13.778;2023-11-22T13:20:47;11.50;;;7.93;;
18875;SDS011;9570;50.854;13.778;2023-11-22T13:23:15;16.08;;;9.30;;
18875;SDS011;9570;50.854;13.778;2023-11-22T13:25:41;11.93;;;9.02;;
18875;SDS011;9570;50.854;13.778;2023-11-22T13:28:06;14.23;;;8.70;;
18875;SDS011;9570;50.854;13.778;2023-11-22T13:30:33;11.73;;;7.97;;
18875;SDS011;9570;50.854;13.778;2023-11-22T13:32:59;14.60;;;9.23;;
18875;SDS011;9570;50.854;13.778;2023-11-22T13:35:25;14.30;;;9.30;;
18875;SDS011;9570;50.854;13.778;2023-11-22T13:37:55;14.63;;;9.13;;
18875;SDS011;9570;50.854;13.778;2023-11-22T13:40:26;13.48;;;8.52;;
18875;SDS011;9570;50.854;13.778;2023-11-22T13:42:55;12.57;;;8.40;;
18875;SDS011;9570;50.854;13.778;2023-11-22T13:45:21;15.38;;;9.85;;
18875;SDS011;9570;50.854;13.778;2023-11-22T13:47:48;14.60;;;8.97;;
18875;SDS011;9570;50.854;13.778;2023-11-22T13:50:22;13.05;;;8.45;;
18875;SDS011;9570;50.854;13.778;2023-11-22T13:52:48;13.70;;;8.93;;
18875;SDS011;9570;50.854;13.778;2023-11-22T13:55:15;13.37;;;8.63;;
18875;SDS011;9570;50.854;13.778;2023-11-22T13:57:43;15.38;;;9.02;;
18875;SDS011;9570;50.854;13.778;2023-11-22T14:00:09;14.27;;;8.67;;
18875;SDS011;9570;50.854;13.778;2023-11-22T14:02:44;15.53;;;8.73;;
18875;SDS011;9570;50.854;13.778;2023-11-22T14:05:13;15.50;;;8.50;;
18875;SDS011;9570;50.854;13.778;2023-11-22T14:07:40;12.90;;;8.70;;
18875;SDS011;9570;50.854;13.778;2023-11-22T14:10:06;14.10;;;8.70;;
18875;SDS011;9570;50.854;13.778;2023-11-22T14:12:33;14.10;;;8.70;;
18875;SDS011;9570;50.854;13.778;2023-11-22T14:14:59;11.73;;;7.93;;
18875;SDS011;9570;50.854;13.778;2023-11-22T14:17:25;11.80;;;8.57;;
18875;SDS011;9570;50.854;13.778;2023-11-22T14:19:51;15.47;;;8.53;;
18875;SDS011;9570;50.854;13.778;2023-11-22T14:22:20;14.07;;;8.33;;
18875;SDS011;9570;50.854;13.778;2023-11-22T14:24:47;13.38;;;8.65;;
18875;SDS011;9570;50.854;13.778;2023-11-22T14:27:13;11.70;;;8.30;;
18875;SDS011;9570;50.854;13.778;2023-11-22T14:29:39;14.83;;;9.27;;
18875;SDS011;9570;50.854;13.778;2023-11-22T14:32:05;13.40;;;9.20;;
18875;SDS011;9570;50.854;13.778;2023-11-22T14:34:32;13.10;;;8.67;;
18875;SDS011;9570;50.854;13.778;2023-11-22T14:36:57;14.17;;;9.57;;
18875;SDS011;9570;50.854;13.778;2023-11-22T14:39:23;14.33;;;9.67;;
18875;SDS011;9570;50.854;13.778;2023-11-22T14:41:48;14.67;;;9.67;;
18875;SDS011;9570;50.854;13.778;2023-11-22T14:44:15;13.75;;;9.18;;
18875;SDS011;9570;50.854;13.778;2023-11-22T14:46:41;12.20;;;9.07;;
18875;SDS011;9570;50.854;13.778;2023-11-22T14:49:07;13.87;;;9.77;;
18875;SDS011;9570;50.854;13.778;2023-11-22T14:51:33;14.37;;;9.80;;
18875;SDS011;9570;50.854;13.778;2023-11-22T14:53:58;15.73;;;9.80;;
18875;SDS011;9570;50.854;13.778;2023-11-22T14:56:24;15.43;;;9.87;;
18875;SDS011;9570;50.854;13.778;2023-11-22T14:58:49;16.63;;;10.10;;
18875;SDS011;9570;50.854;13.778;2023-11-22T15:01:22;15.93;;;9.70;;
18875;SDS011;9570;50.854;13.778;2023-11-22T15:03:51;17.23;;;10.13;;
18875;SDS011;9570;50.854;13.778;2023-11-22T15:06:18;15.68;;;10.30;;
18875;SDS011;9570;50.854;13.778;2023-11-22T15:08:44;14.07;;;9.95;;
18875;SDS011;9570;50.854;13.778;2023-11-22T15:11:10;15.27;;;10.37;;
18875;SDS011;9570;50.854;13.778;2023-11-22T15:13:36;15.32;;;10.30;;
18875;SDS011;9570;50.854;13.778;2023-11-22T15:16:02;18.03;;;11.17;;
18875;SDS011;9570;50.854;13.778;2023-11-22T15:18:27;16.07;;;10.20;;
18875;SDS011;9570;50.854;13.778;2023-11-22T15:20:53;14.30;;;10.43;;
18875;SDS011;9570;50.854;13.778;2023-11-22T15:23:18;15.07;;;10.33;;
18875;SDS011;9570;50.854;13.778;2023-11-22T15:25:47;18.07;;;11.80;;
18875;SDS011;9570;50.854;13.778;2023-11-22T15:28:12;17.97;;;11.80;;
18875;SDS011;9570;50.854;13.778;2023-11-22T15:30:46;19.50;;;11.60;;
18875;SDS011;9570;50.854;13.778;2023-11-22T15:33:13;15.90;;;10.83;;
18875;SDS011;9570;50.854;13.778;2023-11-22T15:35:39;15.83;;;10.10;;
18875;SDS011;9570;50.854;13.778;2023-11-22T15:38:05;15.70;;;11.10;;
18875;SDS011;9570;50.854;13.778;2023-11-22T15:40:30;19.40;;;11.13;;
18875;SDS011;9570;50.854;13.778;2023-11-22T15:42:56;17.33;;;11.50;;
18875;SDS011;9570;50.854;13.778;2023-11-22T15:45:21;16.37;;;10.73;;
18875;SDS011;9570;50.854;13.778;2023-11-22T15:47:47;17.20;;;11.17;;
18875;SDS011;9570;50.854;13.778;2023-11-22T15:50:12;17.30;;;11.67;;
18875;SDS011;9570;50.854;13.778;2023-11-22T15:52:39;15.38;;;10.45;;
18875;SDS011;9570;50.854;13.778;2023-11-22T15:55:05;19.27;;;11.47;;
18875;SDS011;9570;50.854;13.778;2023-11-22T15:57:31;18.67;;;12.27;;
18875;SDS011;9570;50.854;13.778;2023-11-22T15:59:57;20.80;;;14.57;;
18875;SDS011;9570;50.854;13.778;2023-11-22T16:02:22;18.87;;;12.57;;
18875;SDS011;9570;50.854;13.778;2023-11-22T16:04:47;19.70;;;12.67;;
18875;SDS011;9570;50.854;13.778;2023-11-22T16:07:14;22.20;;;13.10;;
18875;SDS011;9570;50.854;13.778;2023-11-22T16:09:40;21.73;;;12.47;;
18875;SDS011;9570;50.854;13.778;2023-11-22T16:12:08;22.30;;;13.47;;
18875;SDS011;9570;50.854;13.778;2023-11-22T16:14:33;20.67;;;12.77;;
18875;SDS011;9570;50.854;13.778;2023-11-22T16:16:59;19.87;;;12.77;;
18875;SDS011;9570;50.854;13.778;2023-11-22T16:19:24;17.63;;;11.80;;
18875;SDS011;9570;50.854;13.778;2023-11-22T16:21:50;19.07;;;12.20;;
18875;SDS011;9570;50.854;13.778;2023-11-22T16:24:15;25.87;;;12.93;;
18875;SDS011;9570;50.854;13.778;2023-11-22T16:26:41;20.63;;;12.57;;
18875;SDS011;9570;50.854;13.778;2023-11-22T16:29:06;20.30;;;12.50;;
18875;SDS011;9570;50.854;13.778;2023-11-22T16:31:32;20.20;;;12.53;;
18875;SDS011;9570;50.854;13.778;2023-11-22T16:33:58;21.47;;;13.00;;
18875;SDS011;9570;50.854;13.778;2023-11-22T16:36:24;21.03;;;12.43;;
18875;SDS011;9570;50.854;13.778;2023-11-22T16:38:50;20.00;;;13.10;;
18875;SDS011;9570;50.854;13.778;2023-11-22T16:41:17;19.55;;;12.80;;
18875;SDS011;9570;50.854;13.778;2023-11-22T16:43:43;20.47;;;12.90;;
18875;SDS011;9570;50.854;13.778;2023-11-22T16:46:09;19.80;;;12.30;;
18875;SDS011;9570;50.854;13.778;2023-11-22T16:48:34;18.23;;;11.60;;
18875;SDS011;9570;50.854;13.778;2023-11-22T16:51:00;22.83;;;11.63;;
18875;SDS011;9570;50.854;13.778;2023-11-22T16:53:25;19.83;;;12.43;;
18875;SDS011;9570;50.854;13.778;2023-11-22T16:55:51;22.23;;;12.83;;
18875;SDS011;9570;50.854;13.778;2023-11-22T16:58:17;20.33;;;11.90;;
18875;SDS011;9570;50.854;13.778;2023-11-22T17:00:43;17.67;;;10.87;;
18875;SDS011;9570;50.854;13.778;2023-11-22T17:03:10;18.15;;;11.30;;
18875;SDS011;9570;50.854;13.778;2023-11-22T17:05:35;18.83;;;11.17;;
18875;SDS011;9570;50.854;13.778;2023-11-22T17:08:01;17.57;;;11.53;;
18875;SDS011;9570;50.854;13.778;2023-11-22T17:10:28;16.50;;;10.88;;
18875;SDS011;9570;50.854;13.778;2023-11-22T17:12:54;19.63;;;11.53;;
18875;SDS011;9570;50.854;13.778;2023-11-22T17:15:20;17.47;;;11.37;;
18875;SDS011;9570;50.854;13.778;2023-11-22T17:17:46;18.52;;;11.18;;
18875;SDS011;9570;50.854;13.778;2023-11-22T17:20:12;15.50;;;10.23;;
18875;SDS011;9570;50.854;13.778;2023-11-22T17:22:38;14.30;;;10.13;;
18875;SDS011;9570;50.854;13.778;2023-11-22T17:25:03;19.40;;;12.30;;
18875;SDS011;9570;50.854;13.778;2023-11-22T17:27:35;18.90;;;11.17;;
18875;SDS011;9570;50.854;13.778;2023-11-22T17:30:05;18.02;;;12.23;;
18875;SDS011;9570;50.854;13.778;2023-11-22T17:32:32;18.42;;;11.45;;
18875;SDS011;9570;50.854;13.778;2023-11-22T17:34:58;17.70;;;11.20;;
18875;SDS011;9570;50.854;13.778;2023-11-22T17:37:23;17.60;;;10.87;;
18875;SDS011;9570;50.854;13.778;2023-11-22T17:39:49;19.33;;;11.57;;
18875;SDS011;9570;50.854;13.778;2023-11-22T17:42:16;17.05;;;10.20;;
18875;SDS011;9570;50.854;13.778;2023-11-22T17:44:42;17.05;;;11.38;;
18875;SDS011;9570;50.854;13.778;2023-11-22T17:47:13;16.83;;;10.50;;
18875;SDS011;9570;50.854;13.778;2023-11-22T17:49:44;15.77;;;10.10;;
18875;SDS011;9570;50.854;13.778;2023-11-22T17:52:11;16.53;;;10.73;;
18875;SDS011;9570;50.854;13.778;2023-11-22T17:54:37;15.83;;;11.10;;
18875;SDS011;9570;50.854;13.778;2023-11-22T17:57:03;15.63;;;11.17;;
18875;SDS011;9570;50.854;13.778;2023-11-22T17:59:29;18.27;;;10.57;;
18875;SDS011;9570;50.854;13.778;2023-11-22T18:01:55;17.20;;;10.70;;
18875;SDS011;9570;50.854;13.778;2023-11-22T18:04:21;15.93;;;9.90;;
18875;SDS011;9570;50.854;13.778;2023-11-22T18:06:46;16.73;;;10.40;;
18875;SDS011;9570;50.854;13.778;2023-11-22T18:09:12;14.93;;;10.00;;
18875;SDS011;9570;50.854;13.778;2023-11-22T18:11:37;16.33;;;10.80;;
18875;SDS011;9570;50.854;13.778;2023-11-22T18:14:03;17.07;;;10.97;;
18875;SDS011;9570;50.854;13.778;2023-11-22T18:16:29;17.17;;;10.93;;
18875;SDS011;9570;50.854;13.778;2023-11-22T18:18:54;19.40;;;10.90;;
18875;SDS011;9570;50.854;13.778;2023-11-22T18:21:20;16.17;;;10.87;;
18875;SDS011;9570;50.854;13.778;2023-11-22T18:23:46;20.20;;;11.70;;
18875;SDS011;9570;50.854;13.778;2023-11-22T18:26:12;16.47;;;11.10;;
18875;SDS011;9570;50.854;13.778;2023-11-22T18:28:38;18.60;;;11.47;;
18875;SDS011;9570;50.854;13.778;2023-11-22T18:31:04;20.30;;;12.20;;
18875;SDS011;9570;50.854;13.778;2023-11-22T18:33:36;16.52;;;10.98;;
18875;SDS011;9570;50.854;13.778;2023-11-22T18:36:01;19.10;;;12.30;;
18875;SDS011;9570;50.854;13.778;2023-11-22T18:38:27;22.07;;;11.63;;
18875;SDS011;9570;50.854;13.778;2023-11-22T18:40:52;18.60;;;12.07;;
18875;SDS011;9570;50.854;13.778;2023-11-22T18:43:18;17.57;;;12.00;;
18875;SDS011;9570;50.854;13.778;2023-11-22T18:45:44;20.33;;;12.87;;
18875;SDS011;9570;50.854;13.778;2023-11-22T18:48:13;19.40;;;11.45;;
18875;SDS011;9570;50.854;13.778;2023-11-22T18:50:39;19.33;;;13.32;;
18875;SDS011;9570;50.854;13.778;2023-11-22T18:53:05;18.17;;;12.93;;
18875;SDS011;9570;50.854;13.778;2023-11-22T18:55:30;23.60;;;13.67;;
18875;SDS011;9570;50.854;13.778;2023-11-22T18:57:56;18.80;;;12.67;;
18875;SDS011;9570;50.854;13.778;2023-11-22T19:00:22;20.80;;;13.10;;
18875;SDS011;9570;50.854;13.778;2023-11-22T19:02:47;20.10;;;12.73;;
18875;SDS011;9570;50.854;13.778;2023-11-22T19:05:13;19.70;;;13.03;;
18875;SDS011;9570;50.854;13.778;2023-11-22T19:07:39;20.77;;;12.77;;
18875;SDS011;9570;50.854;13.778;2023-11-22T19:10:06;21.37;;;12.53;;
18875;SDS011;9570;50.854;13.778;2023-11-22T19:12:33;18.63;;;12.13;;
18875;SDS011;9570;50.854;13.778;2023-11-22T19:14:58;19.70;;;12.77;;
18875;SDS011;9570;50.854;13.778;2023-11-22T19:17:24;20.00;;;12.27;;
18875;SDS011;9570;50.854;13.778;2023-11-22T19:19:49;20.23;;;13.23;;
18875;SDS011;9570;50.854;13.778;2023-11-22T19:22:15;19.73;;;12.93;;
18875;SDS011;9570;50.854;13.778;2023-11-22T19:24:40;21.00;;;12.83;;
18875;SDS011;9570;50.854;13.778;2023-11-22T19:27:06;20.50;;;12.83;;
18875;SDS011;9570;50.854;13.778;2023-11-22T19:29:33;21.40;;;13.57;;
18875;SDS011;9570;50.854;13.778;2023-11-22T19:32:01;19.57;;;12.47;;
18875;SDS011;9570;50.854;13.778;2023-11-22T19:34:27;20.67;;;12.93;;
18875;SDS011;9570;50.854;13.778;2023-11-22T19:36:52;21.90;;;13.27;;
18875;SDS011;9570;50.854;13.778;2023-11-22T19:39:18;23.17;;;12.93;;
18875;SDS011;9570;50.854;13.778;2023-11-22T19:41:44;21.30;;;13.30;;
18875;SDS011;9570;50.854;13.778;2023-11-22T19:44:09;19.97;;;12.37;;
18875;SDS011;9570;50.854;13.778;2023-11-22T19:46:35;19.03;;;12.00;;
18875;SDS011;9570;50.854;13.778;2023-11-22T19:49:00;17.50;;;11.20;;
18875;SDS011;9570;50.854;13.778;2023-11-22T19:51:28;19.80;;;12.70;;
18875;SDS011;9570;50.854;13.778;2023-11-22T19:53:54;21.93;;;13.23;;
18875;SDS011;9570;50.854;13.778;2023-11-22T19:56:24;19.80;;;12.90;;
18875;SDS011;9570;50.854;13.778;2023-11-22T19:58:51;20.17;;;12.83;;
18875;SDS011;9570;50.854;13.778;2023-11-22T20:01:17;20.43;;;13.13;;
18875;SDS011;9570;50.854;13.778;2023-11-22T20:03:42;20.37;;;12.43;;
18875;SDS011;9570;50.854;13.778;2023-11-22T20:06:10;20.70;;;11.97;;
18875;SDS011;9570;50.854;13.778;2023-11-22T20:08:36;19.43;;;11.87;;
18875;SDS011;9570;50.854;13.778;2023-11-22T20:11:01;20.90;;;12.87;;
18875;SDS011;9570;50.854;13.778;2023-11-22T20:13:27;18.87;;;12.17;;
18875;SDS011;9570;50.854;13.778;2023-11-22T20:15:52;20.80;;;13.23;;
18875;SDS011;9570;50.854;13.778;2023-11-22T20:18:18;20.27;;;12.93;;
18875;SDS011;9570;50.854;13.778;2023-11-22T20:20:43;20.63;;;12.47;;
18875;SDS011;9570;50.854;13.778;2023-11-22T20:23:09;19.50;;;13.03;;
18875;SDS011;9570;50.854;13.778;2023-11-22T20:25:40;20.40;;;12.47;;
18875;SDS011;9570;50.854;13.778;2023-11-22T20:28:06;20.23;;;13.00;;
18875;SDS011;9570;50.854;13.778;2023-11-22T20:30:31;23.63;;;13.60;;
18875;SDS011;9570;50.854;13.778;2023-11-22T20:32:57;20.13;;;13.23;;
18875;SDS011;9570;50.854;13.778;2023-11-22T20:35:22;21.87;;;13.70;;
18875;SDS011;9570;50.854;13.778;2023-11-22T20:37:48;22.30;;;13.60;;
18875;SDS011;9570;50.854;13.778;2023-11-22T20:40:13;21.27;;;13.47;;
18875;SDS011;9570;50.854;13.778;2023-11-22T20:42:39;18.53;;;12.37;;
18875;SDS011;9570;50.854;13.778;2023-11-22T20:45:05;19.80;;;12.93;;
18875;SDS011;9570;50.854;13.778;2023-11-22T20:47:33;20.57;;;12.93;;
18875;SDS011;9570;50.854;13.778;2023-11-22T20:49:58;20.53;;;12.50;;
18875;SDS011;9570;50.854;13.778;2023-11-22T20:52:24;19.07;;;11.97;;
18875;SDS011;9570;50.854;13.778;2023-11-22T20:54:50;17.93;;;11.00;;
18875;SDS011;9570;50.854;13.778;2023-11-22T20:57:15;16.73;;;11.33;;
18875;SDS011;9570;50.854;13.778;2023-11-22T20:59:41;17.00;;;11.10;;
18875;SDS011;9570;50.854;13.778;2023-11-22T21:02:06;17.33;;;12.00;;
18875;SDS011;9570;50.854;13.778;2023-11-22T21:04:32;16.70;;;11.07;;
18875;SDS011;9570;50.854;13.778;2023-11-22T21:06:57;14.77;;;9.80;;
18875;SDS011;9570;50.854;13.778;2023-11-22T21:09:23;17.60;;;10.73;;
18875;SDS011;9570;50.854;13.778;2023-11-22T21:11:49;16.83;;;10.57;;
18875;SDS011;9570;50.854;13.778;2023-11-22T21:14:14;16.17;;;10.27;;
18875;SDS011;9570;50.854;13.778;2023-11-22T21:16:41;15.67;;;9.33;;
18875;SDS011;9570;50.854;13.778;2023-11-22T21:19:10;14.37;;;10.07;;
18875;SDS011;9570;50.854;13.778;2023-11-22T21:21:36;13.27;;;9.17;;
18875;SDS011;9570;50.854;13.778;2023-11-22T21:24:02;14.63;;;9.40;;
18875;SDS011;9570;50.854;13.778;2023-11-22T21:26:28;14.33;;;9.50;;
18875;SDS011;9570;50.854;13.778;2023-11-22T21:28:54;14.05;;;10.60;;
18875;SDS011;9570;50.854;13.778;2023-11-22T21:31:20;13.90;;;9.83;;
18875;SDS011;9570;50.854;13.778;2023-11-22T21:33:47;12.83;;;8.60;;
18875;SDS011;9570;50.854;13.778;2023-11-22T21:36:13;13.20;;;8.80;;
18875;SDS011;9570;50.854;13.778;2023-11-22T21:38:40;13.73;;;8.93;;
18875;SDS011;9570;50.854;13.778;2023-11-22T21:41:06;9.93;;;7.27;;
18875;SDS011;9570;50.854;13.778;2023-11-22T21:43:36;10.47;;;8.00;;
18875;SDS011;9570;50.854;13.778;2023-11-22T21:46:02;11.20;;;7.93;;
18875;SDS011;9570;50.854;13.778;2023-11-22T21:48:28;10.80;;;7.10;;
18875;SDS011;9570;50.854;13.778;2023-11-22T21:50:54;10.83;;;7.67;;
18875;SDS011;9570;50.854;13.778;2023-11-22T21:53:19;10.80;;;6.83;;
18875;SDS011;9570;50.854;13.778;2023-11-22T21:55:45;9.83;;;7.30;;
18875;SDS011;9570;50.854;13.778;2023-11-22T21:58:11;10.57;;;7.30;;
18875;SDS011;9570;50.854;13.778;2023-11-22T22:00:37;10.57;;;7.30;;
18875;SDS011;9570;50.854;13.778;2023-11-22T22:03:03;9.93;;;6.83;;
18875;SDS011;9570;50.854;13.778;2023-11-22T22:05:28;9.27;;;6.90;;
18875;SDS011;9570;50.854;13.778;2023-11-22T22:07:54;12.10;;;7.03;;
18875;SDS011;9570;50.854;13.778;2023-11-22T22:10:19;9.93;;;7.07;;
18875;SDS011;9570;50.854;13.778;2023-11-22T22:12:45;10.47;;;7.03;;
18875;SDS011;9570;50.854;13.778;2023-11-22T22:15:11;9.63;;;6.90;;
18875;SDS011;9570;50.854;13.778;2023-11-22T22:17:36;9.63;;;6.60;;
18875;SDS011;9570;50.854;13.778;2023-11-22T22:20:02;9.90;;;6.80;;
18875;SDS011;9570;50.854;13.778;2023-11-22T22:22:29;9.53;;;6.17;;
18875;SDS011;9570;50.854;13.778;2023-11-22T22:24:54;10.23;;;6.53;;
18875;SDS011;9570;50.854;13.778;2023-11-22T22:27:20;8.83;;;6.07;;
18875;SDS011;9570;50.854;13.778;2023-11-22T22:29:45;9.20;;;6.57;;
18875;SDS011;9570;50.854;13.778;2023-11-22T22:32:11;8.37;;;5.87;;
18875;SDS011;9570;50.854;13.778;2023-11-22T22:34:36;8.53;;;5.97;;
18875;SDS011;9570;50.854;13.778;2023-11-22T22:37:02;8.63;;;5.73;;
18875;SDS011;9570;50.854;13.778;2023-11-22T22:39:28;8.70;;;6.70;;
18875;SDS011;9570;50.854;13.778;2023-11-22T22:41:54;8.60;;;6.13;;
18875;SDS011;9570;50.854;13.778;2023-11-22T22:44:19;9.63;;;6.57;;
18875;SDS011;9570;50.854;13.778;2023-11-22T22:46:45;8.30;;;5.87;;
18875;SDS011;9570;50.854;13.778;2023-11-22T22:49:11;7.80;;;5.63;;
18875;SDS011;9570;50.854;13.778;2023-11-22T22:51:37;8.73;;;5.67;;
18875;SDS011;9570;50.854;13.778;2023-11-22T22:54:02;7.80;;;5.37;;
18875;SDS011;9570;50.854;13.778;2023-11-22T22:56:28;7.07;;;4.93;;
18875;SDS011;9570;50.854;13.778;2023-11-22T22:58:53;8.20;;;6.03;;
18875;SDS011;9570;50.854;13.778;2023-11-22T23:01:19;7.13;;;5.60;;
18875;SDS011;9570;50.854;13.778;2023-11-22T23:03:46;8.25;;;5.63;;
18875;SDS011;9570;50.854;13.778;2023-11-22T23:06:22;7.97;;;5.07;;
18875;SDS011;9570;50.854;13.778;2023-11-22T23:08:48;7.23;;;4.70;;
18875;SDS011;9570;50.854;13.778;2023-11-22T23:11:16;7.17;;;5.07;;
18875;SDS011;9570;50.854;13.778;2023-11-22T23:13:43;7.38;;;5.18;;
18875;SDS011;9570;50.854;13.778;2023-11-22T23:16:09;6.73;;;4.70;;
18875;SDS011;9570;50.854;13.778;2023-11-22T23:18:34;8.07;;;4.67;;
18875;SDS011;9570;50.854;13.778;2023-11-22T23:21:00;5.80;;;4.77;;
18875;SDS011;9570;50.854;13.778;2023-11-22T23:23:25;5.57;;;4.40;;
18875;SDS011;9570;50.854;13.778;2023-11-22T23:25:51;9.20;;;6.07;;
18875;SDS011;9570;50.854;13.778;2023-11-22T23:28:16;5.87;;;4.43;;
18875;SDS011;9570;50.854;13.778;2023-11-22T23:30:42;5.33;;;4.10;;
18875;SDS011;9570;50.854;13.778;2023-11-22T23:33:08;5.93;;;4.43;;
18875;SDS011;9570;50.854;13.778;2023-11-22T23:35:34;5.63;;;4.27;;
18875;SDS011;9570;50.854;13.778;2023-11-22T23:37:59;5.83;;;4.50;;
18875;SDS011;9570;50.854;13.778;2023-11-22T23:40:25;6.60;;;4.47;;
18875;SDS011;9570;50.854;13.778;2023-11-22T23:42:51;6.37;;;4.50;;
18875;SDS011;9570;50.854;13.778;2023-11-22T23:45:19;5.70;;;4.67;;
18875;SDS011;9570;50.854;13.778;2023-11-22T23:47:45;5.60;;;3.97;;
18875;SDS011;9570;50.854;13.778;2023-11-22T23:50:12;6.03;;;4.13;;
18875;SDS011;9570;50.854;13.778;2023-11-22T23:52:38;6.20;;;4.30;;
18875;SDS011;9570;50.854;13.778;2023-11-22T23:55:04;6.20;;;4.47;;
18875;SDS011;9570;50.854;13.778;2023-11-22T23:57:35;6.00;;;4.68;;
